Time;durP1;ratioP1;P1;durP2;ratioP2;P2;SDS_P1;SDS_P2;PMS_P1;PMS_P2;Temp;Humidity;BMP_temperature;BMP_pressure;BME280_temperature;BME280_humidity;BME280_pressure;Samples;Min_cycle;Max_cycle;Signal;HPM_P1;HPM_P2
2022/01/15 00:00:19;;;;;;;16.58;9.13;;;6.50;99.90;;;;;;4782978;29;20086;-69
2022/01/15 00:02:45;;;;;;;17.70;9.15;;;6.50;99.90;;;;;;4768897;29;21122;-70
2022/01/15 00:05:11;;;;;;;19.05;10.25;;;6.50;99.90;;;;;;4784657;29;20089;-69
2022/01/15 00:07:38;;;;;;;15.02;9.43;;;6.40;99.90;;;;;;4783465;29;20476;-69
2022/01/15 00:10:05;;;;;;;17.77;8.77;;;6.50;99.90;;;;;;4785459;29;20067;-69
2022/01/15 00:12:38;;;;;;;14.82;9.23;;;6.40;99.90;;;;;;4785095;29;20487;-69
2022/01/15 00:15:05;;;;;;;14.88;8.52;;;6.40;99.90;;;;;;4783936;29;20070;-69
2022/01/15 00:17:44;;;;;;;16.90;9.07;;;6.40;99.90;;;;;;4783919;29;20484;-69
2022/01/15 00:20:10;;;;;;;21.90;10.48;;;6.40;99.90;;;;;;4785114;29;20054;-69
2022/01/15 00:22:36;;;;;;;18.92;10.00;;;6.40;99.90;;;;;;4783529;29;20414;-69
2022/01/15 00:25:01;;;;;;;18.80;9.25;;;6.40;99.90;;;;;;4782999;29;20196;-69
2022/01/15 00:27:27;;;;;;;15.35;9.32;;;6.50;99.90;;;;;;4784578;29;20051;-70
2022/01/15 00:29:53;;;;;;;18.40;9.02;;;6.50;99.90;;;;;;4783541;29;20236;-69
2022/01/15 00:32:18;;;;;;;19.38;9.50;;;6.50;99.90;;;;;;4782057;29;20055;-69
2022/01/15 00:34:44;;;;;;;17.75;9.75;;;6.50;99.90;;;;;;4782800;29;20129;-69
2022/01/15 00:37:10;;;;;;;19.58;9.50;;;6.50;99.90;;;;;;4781913;29;20043;-69
2022/01/15 00:39:36;;;;;;;15.77;9.40;;;6.50;99.90;;;;;;4784352;29;20088;-70
2022/01/15 00:42:02;;;;;;;18.42;9.20;;;6.50;99.90;;;;;;4782230;29;20884;-70
2022/01/15 00:44:28;;;;;;;19.65;9.38;;;6.50;99.90;;;;;;4784238;29;20142;-70
2022/01/15 00:46:54;;;;;;;13.35;7.70;;;6.50;99.90;;;;;;4782823;29;20055;-70
2022/01/15 00:49:19;;;;;;;17.80;8.82;;;6.50;99.90;;;;;;4784839;29;20049;-69
2022/01/15 00:51:45;;;;;;;12.55;7.50;;;6.50;99.90;;;;;;4782426;29;20140;-69
2022/01/15 00:54:11;;;;;;;17.23;8.30;;;6.40;99.90;;;;;;4782128;29;20047;-70
2022/01/15 00:56:37;;;;;;;21.73;7.95;;;6.40;99.90;;;;;;4782231;29;20039;-70
2022/01/15 00:59:02;;;;;;;18.58;8.23;;;6.40;99.90;;;;;;4782124;29;20117;-70
2022/01/15 01:01:28;;;;;;;17.58;7.97;;;6.40;99.90;;;;;;4779743;29;20397;-69
2022/01/15 01:03:54;;;;;;;9.68;6.80;;;6.40;99.90;;;;;;4783508;29;20054;-69
2022/01/15 01:06:19;;;;;;;14.13;7.43;;;6.40;99.90;;;;;;4782289;29;20047;-69
2022/01/15 01:08:45;;;;;;;19.63;7.65;;;6.40;99.90;;;;;;4782771;29;20076;-69
2022/01/15 01:11:13;;;;;;;21.73;8.52;;;6.40;99.90;;;;;;4781247;29;21957;-69
2022/01/15 01:24:22;;;;;;;15.65;6.97;;;6.40;99.90;;;;;;4780868;29;20051;-70
2022/01/15 01:27:05;;;;;;;12.30;6.00;;;6.40;99.90;;;;;;4780787;29;20082;-69
2022/01/15 01:29:39;;;;;;;15.38;7.40;;;6.40;99.90;;;;;;4781134;29;20069;-70
2022/01/15 01:32:35;;;;;;;16.70;6.68;;;6.40;99.90;;;;;;4781645;29;21029;-70
2022/01/15 01:34:51;;;;;;;15.35;6.90;;;6.40;99.90;;;;;;4782740;29;20047;-70
2022/01/15 01:37:25;;;;;;;16.58;6.93;;;6.40;99.90;;;;;;4782318;29;20046;-69
2022/01/15 01:39:56;;;;;;;13.45;6.45;;;6.60;99.90;;;;;;4781751;29;20388;-69
2022/01/15 01:45:08;;;;;;;9.27;6.00;;;6.50;99.90;;;;;;4781610;29;20055;-69
2022/01/15 01:47:40;;;;;;;;;;;6.50;99.90;;;;;;4780143;29;21165;-69
2022/01/15 01:50:13;;;;;;;9.90;5.75;;;6.40;99.90;;;;;;4781789;29;19932;-70
2022/01/15 01:52:41;;;;;;;10.65;5.47;;;6.40;99.90;;;;;;4780907;29;20059;-70
2022/01/15 01:55:07;;;;;;;10.48;6.07;;;6.40;99.90;;;;;;4781825;29;20069;-69
2022/01/15 01:57:33;;;;;;;11.93;5.75;;;6.40;99.90;;;;;;4780830;29;20044;-70
2022/01/15 01:59:59;;;;;;;10.10;5.65;;;6.40;99.90;;;;;;4780988;29;20054;-70
2022/01/15 02:02:25;;;;;;;10.32;5.72;;;6.40;99.90;;;;;;4781776;29;20047;-70
2022/01/15 02:04:56;;;;;;;7.10;4.97;;;6.40;99.90;;;;;;4781322;29;20048;-69
2022/01/15 02:07:22;;;;;;;8.32;5.57;;;6.40;99.90;;;;;;4780631;29;20120;-70
2022/01/15 02:09:47;;;;;;;9.18;5.68;;;6.30;99.90;;;;;;4766537;29;20617;-69
2022/01/15 02:12:13;;;;;;;12.00;5.93;;;6.40;99.90;;;;;;4780568;29;20175;-69
2022/01/15 02:14:39;;;;;;;7.72;4.60;;;6.30;99.90;;;;;;4780289;29;20045;-69
2022/01/15 02:17:04;;;;;;;11.75;5.10;;;6.30;99.90;;;;;;4783013;29;20243;-69
2022/01/15 02:19:44;;;;;;;8.00;4.82;;;6.30;99.90;;;;;;4779557;29;20139;-70
2022/01/15 02:24:54;;;;;;;7.45;4.18;;;6.30;99.90;;;;;;4779765;29;20093;-70
2022/01/15 02:27:20;;;;;;;8.65;4.50;;;6.30;99.90;;;;;;4779828;29;20075;-70
2022/01/15 02:29:45;;;;;;;9.60;4.47;;;6.30;99.90;;;;;;4781002;29;20142;-70
2022/01/15 02:32:11;;;;;;;8.50;4.30;;;6.20;99.90;;;;;;4764377;29;20117;-70
2022/01/15 02:34:37;;;;;;;6.15;4.15;;;6.30;99.90;;;;;;4781701;29;20058;-70
2022/01/15 02:37:03;;;;;;;9.18;4.53;;;6.20;99.90;;;;;;4781167;29;20424;-70
2022/01/15 02:39:28;;;;;;;6.35;3.92;;;6.20;99.90;;;;;;4766657;29;20051;-70
2022/01/15 02:41:54;;;;;;;8.52;4.20;;;6.30;99.90;;;;;;4782028;29;20035;-70
2022/01/15 02:44:20;;;;;;;6.90;3.92;;;6.40;99.90;;;;;;4781152;29;20408;-70
2022/01/15 02:49:16;;;;;;;6.97;3.95;;;6.30;99.90;;;;;;4782830;29;20055;-69
2022/01/15 02:51:43;;;;;;;6.70;4.18;;;6.20;99.90;;;;;;4783735;29;20047;-70
2022/01/15 02:54:09;;;;;;;9.75;4.88;;;6.30;99.90;;;;;;4781583;29;20243;-70
2022/01/15 02:56:40;;;;;;;6.85;4.43;;;6.30;99.90;;;;;;4784209;29;20044;-70
2022/01/15 02:59:19;;;;;;;8.60;4.43;;;6.20;99.90;;;;;;4769705;29;20051;-70
2022/01/15 03:01:45;;;;;;;7.30;4.38;;;6.20;99.90;;;;;;4783511;29;20074;-70
2022/01/15 03:04:12;;;;;;;5.68;3.47;;;6.20;99.90;;;;;;4784584;29;20136;-70
2022/01/15 03:06:38;;;;;;;5.72;3.42;;;6.40;99.90;;;;;;4785354;29;20063;-70
2022/01/15 03:09:03;;;;;;;7.78;3.78;;;6.20;99.90;;;;;;4784452;29;20466;-70
2022/01/15 03:11:29;;;;;;;7.38;3.47;;;6.20;99.90;;;;;;4783442;29;20046;-70
2022/01/15 03:13:55;;;;;;;7.18;3.30;;;6.30;99.90;;;;;;4784144;29;20047;-70
2022/01/15 03:16:21;;;;;;;5.68;3.45;;;6.30;99.90;;;;;;4784269;29;20130;-70
2022/01/15 03:18:48;;;;;;;6.03;3.08;;;6.30;99.90;;;;;;4786041;29;20050;-70
2022/01/15 03:21:14;;;;;;;4.75;2.90;;;6.30;99.90;;;;;;4783493;29;20066;-70
2022/01/15 03:23:40;;;;;;;5.68;3.13;;;6.30;99.90;;;;;;4784912;29;20126;-70
2022/01/15 03:26:07;;;;;;;5.90;2.90;;;6.30;99.90;;;;;;4783357;29;20078;-70
2022/01/15 03:28:34;;;;;;;6.20;3.45;;;6.50;99.90;;;;;;4783728;29;20519;-70
2022/01/15 03:31:00;;;;;;;5.07;3.03;;;6.30;99.90;;;;;;4783603;29;20138;-70
2022/01/15 03:33:26;;;;;;;5.45;3.30;;;6.20;99.90;;;;;;4783092;29;21477;-70
2022/01/15 03:35:52;;;;;;;5.65;3.22;;;6.30;99.90;;;;;;4783568;29;20043;-70
2022/01/15 03:38:18;;;;;;;5.40;3.17;;;6.30;99.90;;;;;;4782962;29;20052;-70
2022/01/15 03:40:43;;;;;;;3.75;2.75;;;6.40;99.90;;;;;;4782819;29;20377;-70
2022/01/15 03:43:10;;;;;;;4.82;3.30;;;6.20;99.90;;;;;;4784032;29;20058;-70
2022/01/15 03:45:36;;;;;;;5.60;2.95;;;6.20;99.90;;;;;;4782635;29;20518;-70
2022/01/15 03:48:02;;;;;;;5.50;3.00;;;6.20;99.90;;;;;;4782446;29;20086;-70
2022/01/15 03:50:28;;;;;;;5.40;3.08;;;6.10;99.90;;;;;;4783661;29;20059;-70
2022/01/15 03:52:55;;;;;;;4.75;3.22;;;6.10;99.90;;;;;;4783824;29;20091;-70
2022/01/15 03:55:23;;;;;;;4.85;3.05;;;6.10;99.90;;;;;;4783688;29;20057;-70
2022/01/15 03:57:49;;;;;;;4.05;2.67;;;6.10;99.90;;;;;;4783598;29;20046;-70
2022/01/15 04:00:24;;;;;;;4.97;3.10;;;6.10;99.90;;;;;;4782031;29;20122;-70
2022/01/15 04:02:51;;;;;;;6.03;3.60;;;6.00;99.90;;;;;;4783524;29;20043;-70
2022/01/15 04:05:17;;;;;;;8.32;3.63;;;6.00;99.90;;;;;;4783035;29;20488;-70
2022/01/15 04:07:43;;;;;;;5.90;3.65;;;6.00;99.90;;;;;;4784531;29;20389;-70
2022/01/15 04:10:11;;;;;;;5.32;3.10;;;6.00;99.90;;;;;;4784778;29;20050;-70
2022/01/15 04:12:37;;;;;;;5.60;3.60;;;6.00;99.90;;;;;;4783014;29;20396;-70
2022/01/15 04:15:04;;;;;;;5.75;3.47;;;6.00;99.90;;;;;;4783056;29;20055;-70
2022/01/15 04:17:30;;;;;;;5.32;3.50;;;6.00;99.90;;;;;;4784147;29;20483;-70
2022/01/15 04:19:57;;;;;;;5.90;3.45;;;6.00;99.90;;;;;;4784327;29;20070;-70
2022/01/15 04:22:22;;;;;;;6.57;3.70;;;6.10;99.90;;;;;;4768563;29;20439;-70
2022/01/15 04:24:48;;;;;;;4.93;2.95;;;6.00;99.90;;;;;;4782017;29;20116;-70
2022/01/15 04:27:14;;;;;;;4.55;2.65;;;6.10;99.90;;;;;;4780767;29;20149;-70
2022/01/15 04:29:40;;;;;;;5.82;3.30;;;6.00;99.90;;;;;;4783525;29;20454;-70
2022/01/15 04:32:06;;;;;;;5.05;3.00;;;6.10;99.90;;;;;;4783425;29;20109;-70
2022/01/15 04:34:32;;;;;;;6.10;3.25;;;6.10;99.90;;;;;;4781023;29;20081;-70
2022/01/15 04:37:16;;;;;;;4.20;2.78;;;6.10;99.90;;;;;;4782085;29;20075;-70
2022/01/15 04:39:42;;;;;;;5.93;3.20;;;6.10;99.90;;;;;;4783493;29;20508;-70
2022/01/15 04:42:08;;;;;;;5.88;3.70;;;6.10;99.90;;;;;;4783607;29;20050;-70
2022/01/15 04:44:34;;;;;;;6.05;3.13;;;6.10;99.90;;;;;;4784401;29;20138;-70
2022/01/15 04:47:03;;;;;;;5.15;3.30;;;6.30;99.90;;;;;;4781389;29;20048;-70
2022/01/15 04:49:29;;;;;;;5.55;3.45;;;6.00;99.90;;;;;;4781740;29;20061;-70
2022/01/15 04:51:55;;;;;;;6.22;3.42;;;6.00;99.90;;;;;;4781733;29;20054;-70
2022/01/15 04:54:20;;;;;;;5.70;3.30;;;6.10;99.90;;;;;;4782133;29;20056;-70
2022/01/15 04:56:46;;;;;;;4.60;2.70;;;6.00;99.90;;;;;;4781737;29;20055;-70
2022/01/15 04:59:12;;;;;;;4.65;3.00;;;6.00;99.90;;;;;;4782172;29;20051;-70
2022/01/15 05:01:38;;;;;;;4.78;2.90;;;6.00;99.90;;;;;;4782729;29;20055;-70
2022/01/15 05:04:03;;;;;;;4.40;3.05;;;6.00;99.90;;;;;;4783115;29;20388;-70
2022/01/15 05:06:29;;;;;;;5.50;3.08;;;6.00;99.90;;;;;;4783175;29;20043;-70
2022/01/15 05:09:04;;;;;;;5.30;3.20;;;6.00;99.90;;;;;;4782125;29;20047;-70
2022/01/15 05:11:43;;;;;;;5.28;3.35;;;5.90;99.90;;;;;;4783643;29;20122;-70
2022/01/15 05:14:09;;;;;;;5.53;3.28;;;5.80;99.90;;;;;;4782127;29;20055;-70
2022/01/15 05:16:35;;;;;;;6.63;2.90;;;5.80;99.90;;;;;;4781195;29;20051;-70
2022/01/15 05:19:00;;;;;;;5.80;3.55;;;5.80;99.90;;;;;;4783616;29;20043;-69
2022/01/15 05:21:26;;;;;;;5.18;3.30;;;5.80;99.90;;;;;;4781421;29;20122;-70
2022/01/15 05:23:51;;;;;;;4.65;3.10;;;5.80;99.90;;;;;;4783073;29;20047;-69
2022/01/15 05:26:17;;;;;;;4.10;2.97;;;5.80;99.90;;;;;;4780996;29;20047;-70
2022/01/15 05:28:43;;;;;;;4.45;2.67;;;5.70;99.90;;;;;;4782165;29;20055;-70
2022/01/15 05:31:08;;;;;;;5.05;3.40;;;5.70;99.90;;;;;;4783374;29;20047;-69
2022/01/15 05:33:34;;;;;;;3.80;2.92;;;5.70;99.90;;;;;;4779524;29;20087;-70
2022/01/15 05:36:00;;;;;;;5.80;3.30;;;5.70;99.90;;;;;;4780915;29;20559;-70
2022/01/15 05:38:26;;;;;;;4.15;2.92;;;5.90;99.90;;;;;;4781561;29;20089;-69
2022/01/15 05:40:52;;;;;;;4.80;3.10;;;5.70;99.90;;;;;;4765796;29;21838;-70
2022/01/15 05:43:17;;;;;;;4.90;2.78;;;5.70;99.90;;;;;;4781537;29;20108;-70
2022/01/15 05:45:43;;;;;;;4.32;2.75;;;5.70;99.90;;;;;;4780879;29;20593;-70
2022/01/15 05:48:09;;;;;;;4.35;2.78;;;5.70;99.90;;;;;;4781285;29;20122;-70
2022/01/15 05:50:34;;;;;;;6.25;3.30;;;5.70;99.90;;;;;;4782825;29;20399;-70
2022/01/15 05:53:00;;;;;;;4.45;3.00;;;5.70;99.90;;;;;;4782374;29;20147;-70
2022/01/15 05:55:26;;;;;;;5.75;3.85;;;5.80;99.90;;;;;;4781772;29;20049;-70
2022/01/15 05:57:51;;;;;;;5.85;3.65;;;5.80;99.90;;;;;;4781873;29;20043;-70
2022/01/15 06:00:17;;;;;;;5.95;3.17;;;5.80;99.90;;;;;;4781424;29;20050;-70
2022/01/15 06:02:43;;;;;;;4.03;3.08;;;5.80;99.90;;;;;;4782247;29;20051;-70
2022/01/15 06:05:09;;;;;;;4.63;3.33;;;5.80;99.90;;;;;;4781177;29;20714;-70
2022/01/15 06:07:35;;;;;;;4.93;3.47;;;5.70;99.90;;;;;;4781626;29;20062;-70
2022/01/15 06:10:01;;;;;;;5.88;2.75;;;5.70;99.90;;;;;;4781628;29;20039;-70
2022/01/15 06:12:32;;;;;;;4.30;2.60;;;5.80;99.90;;;;;;4781463;29;20066;-70
2022/01/15 06:14:59;;;;;;;4.80;2.78;;;5.80;99.90;;;;;;4780875;29;20469;-70
2022/01/15 06:17:25;;;;;;;5.25;2.70;;;5.80;99.90;;;;;;4781150;29;20112;-70
2022/01/15 06:19:51;;;;;;;3.83;2.53;;;5.70;99.90;;;;;;4780805;29;20051;-70
2022/01/15 06:22:17;;;;;;;4.57;2.88;;;5.80;99.90;;;;;;4782258;29;20104;-70
2022/01/15 06:24:42;;;;;;;4.63;2.90;;;5.80;99.90;;;;;;4781542;29;20059;-70
2022/01/15 06:27:11;;;;;;;4.65;3.00;;;5.70;99.90;;;;;;4781675;29;20047;-70
2022/01/15 06:29:38;;;;;;;4.22;2.53;;;5.70;99.90;;;;;;4783556;29;20044;-70
2022/01/15 06:32:04;;;;;;;3.78;2.30;;;5.60;99.90;;;;;;4780945;29;20082;-70
2022/01/15 06:34:30;;;;;;;3.47;2.35;;;5.70;99.90;;;;;;4781287;29;20428;-70
2022/01/15 06:36:55;;;;;;;4.40;2.53;;;5.70;99.90;;;;;;4781880;29;20134;-70
2022/01/15 06:39:21;;;;;;;4.72;2.65;;;5.60;99.90;;;;;;4782424;29;20039;-70
2022/01/15 06:41:47;;;;;;;4.80;2.95;;;5.60;99.90;;;;;;4780153;29;20130;-70
2022/01/15 06:44:12;;;;;;;4.15;2.63;;;5.60;99.90;;;;;;4780721;29;20047;-70
2022/01/15 06:46:38;;;;;;;4.68;3.13;;;5.80;99.90;;;;;;4765222;29;20047;-70
2022/01/15 06:49:04;;;;;;;5.05;3.00;;;5.60;99.90;;;;;;4780662;29;20059;-70
2022/01/15 06:51:29;;;;;;;5.15;3.40;;;5.80;99.90;;;;;;4779528;29;20429;-70
2022/01/15 06:53:55;;;;;;;5.45;3.58;;;5.60;99.90;;;;;;4782288;29;20580;-69
2022/01/15 06:56:21;;;;;;;6.05;3.40;;;5.60;99.90;;;;;;4781806;29;20435;-70
2022/01/15 06:58:47;;;;;;;5.88;3.30;;;5.60;99.90;;;;;;4780044;29;20660;-70
2022/01/15 07:01:12;;;;;;;5.80;3.40;;;5.60;99.90;;;;;;4781625;29;20537;-70
2022/01/15 07:03:38;;;;;;;5.00;3.40;;;5.80;99.90;;;;;;4780992;29;20210;-69
2022/01/15 07:06:04;;;;;;;6.18;3.58;;;5.60;99.90;;;;;;4780258;29;20390;-69
2022/01/15 07:08:29;;;;;;;5.22;3.50;;;5.60;99.90;;;;;;4780451;29;20126;-70
2022/01/15 07:10:55;;;;;;;6.18;4.22;;;5.60;99.90;;;;;;4779617;29;20050;-70
2022/01/15 07:13:21;;;;;;;6.65;3.05;;;5.60;99.90;;;;;;4795899;29;20505;-70
2022/01/15 07:15:48;;;;;;;4.05;2.33;;;5.50;99.90;;;;;;4765926;29;20039;-70
2022/01/15 07:18:15;;;;;;;4.15;2.53;;;5.50;99.90;;;;;;4780479;29;20725;-70
2022/01/15 07:20:41;;;;;;;4.35;2.28;;;5.40;99.90;;;;;;4779113;29;20059;-70
2022/01/15 07:23:06;;;;;;;4.05;2.70;;;5.30;99.90;;;;;;4780899;29;20043;-70
2022/01/15 07:25:32;;;;;;;3.88;2.55;;;5.40;99.90;;;;;;4780608;29;20121;-70
2022/01/15 07:27:57;;;;;;;6.78;3.30;;;5.30;99.90;;;;;;4780133;29;20122;-70
2022/01/15 07:30:24;;;;;;;6.07;3.00;;;5.30;99.90;;;;;;4781400;29;20174;-70
2022/01/15 07:32:50;;;;;;;7.38;3.70;;;5.20;99.90;;;;;;4780702;29;20491;-70
2022/01/15 07:35:16;;;;;;;7.00;3.40;;;5.30;99.90;;;;;;4780468;29;20043;-70
2022/01/15 07:37:42;;;;;;;7.13;4.10;;;5.20;99.90;;;;;;4785131;29;20051;-70
2022/01/15 07:40:09;;;;;;;6.28;3.75;;;5.20;99.90;;;;;;4781716;29;20055;-70
2022/01/15 07:42:39;;;;;;;7.25;3.90;;;5.20;99.90;;;;;;4784141;29;20108;-70
2022/01/15 07:45:10;;;;;;;6.95;4.57;;;5.20;99.90;;;;;;4783679;29;20401;-70
2022/01/15 07:47:37;;;;;;;7.00;4.55;;;5.10;99.90;;;;;;4785302;29;20043;-70
2022/01/15 07:50:06;;;;;;;10.48;6.10;;;5.00;99.90;;;;;;4781193;29;20050;-70
2022/01/15 07:52:31;;;;;;;10.43;5.72;;;5.00;99.90;;;;;;4783249;29;20138;-70
2022/01/15 07:54:58;;;;;;;10.27;6.13;;;5.00;99.90;;;;;;4769116;29;20118;-70
2022/01/15 07:57:25;;;;;;;9.98;5.93;;;5.00;99.90;;;;;;4768025;29;20166;-70
2022/01/15 07:59:50;;;;;;;10.18;6.57;;;5.00;99.90;;;;;;4782695;29;20059;-70
2022/01/15 08:02:17;;;;;;;13.45;7.43;;;4.90;99.90;;;;;;4784008;29;20065;-70
2022/01/15 08:04:42;;;;;;;14.32;7.35;;;5.00;99.90;;;;;;4784219;29;20039;-69
2022/01/15 08:07:11;;;;;;;15.18;7.68;;;5.00;99.90;;;;;;4783718;29;20396;-70
2022/01/15 08:09:37;;;;;;;14.45;7.72;;;5.10;99.90;;;;;;4782445;29;20043;-70
2022/01/15 08:12:04;;;;;;;14.82;7.88;;;5.40;99.90;;;;;;4782764;29;20051;-70
2022/01/15 08:14:30;;;;;;;12.27;7.03;;;5.10;99.90;;;;;;4782049;29;20047;-70
2022/01/15 08:16:55;;;;;;;14.02;8.15;;;5.20;99.90;;;;;;4783524;29;20057;-70
2022/01/15 08:19:21;;;;;;;12.85;8.02;;;5.20;99.90;;;;;;4783979;29;20043;-70
2022/01/15 08:21:47;;;;;;;12.88;8.40;;;5.20;99.90;;;;;;4782811;29;20047;-70
2022/01/15 08:24:12;;;;;;;16.10;9.68;;;5.10;99.90;;;;;;4782754;29;20070;-70
2022/01/15 08:26:38;;;;;;;18.38;10.07;;;5.20;99.90;;;;;;4781129;29;20126;-70
2022/01/15 08:29:04;;;;;;;17.42;9.30;;;5.00;99.90;;;;;;4781258;29;20050;-69
2022/01/15 08:31:30;;;;;;;20.48;10.90;;;5.00;99.90;;;;;;4784428;29;20046;-70
2022/01/15 08:33:55;;;;;;;20.20;11.27;;;4.90;99.90;;;;;;4782832;29;20584;-70
2022/01/15 08:36:22;;;;;;;20.08;12.35;;;4.90;99.90;;;;;;4784537;29;20112;-70
2022/01/15 08:38:48;;;;;;;21.25;12.32;;;4.80;99.90;;;;;;4783141;29;20051;-70
2022/01/15 08:41:14;;;;;;;20.92;12.10;;;4.80;99.90;;;;;;4780589;29;20509;-70
2022/01/15 08:43:44;;;;;;;25.55;12.98;;;4.80;99.90;;;;;;4783086;29;20525;-70
2022/01/15 08:46:11;;;;;;;24.23;14.18;;;4.70;99.90;;;;;;4782650;29;20445;-70
2022/01/15 08:48:37;;;;;;;26.90;14.18;;;4.80;99.90;;;;;;4783243;29;20119;-70
2022/01/15 08:51:03;;;;;;;31.23;16.15;;;4.80;99.90;;;;;;4783149;29;20055;-70
2022/01/15 08:53:28;;;;;;;31.63;16.00;;;4.70;99.90;;;;;;4783575;29;20104;-70
2022/01/15 08:55:55;;;;;;;25.48;14.77;;;4.70;99.90;;;;;;4782492;29;20054;-70
2022/01/15 08:58:21;;;;;;;30.83;15.80;;;4.80;99.90;;;;;;4782913;29;20043;-70
2022/01/15 09:00:50;;;;;;;34.35;16.33;;;4.80;99.90;;;;;;4782213;29;20054;-70
2022/01/15 09:03:15;;;;;;;26.73;14.93;;;4.80;99.90;;;;;;4767720;29;20110;-70
2022/01/15 09:05:41;;;;;;;30.13;15.52;;;4.80;99.90;;;;;;4780532;29;20560;-70
2022/01/15 09:08:08;;;;;;;28.45;15.00;;;4.80;99.90;;;;;;4780108;29;20566;-70
2022/01/15 09:10:41;;;;;;;25.02;14.82;;;4.90;99.90;;;;;;4781741;29;20124;-70
2022/01/15 09:13:10;;;;;;;32.55;15.10;;;4.90;99.90;;;;;;4782788;29;20127;-70
2022/01/15 09:15:36;;;;;;;26.60;14.68;;;4.90;99.90;;;;;;4780258;29;20063;-70
2022/01/15 09:18:02;;;;;;;28.33;15.50;;;5.00;99.90;;;;;;4777592;29;20082;-70
2022/01/15 09:20:28;;;;;;;24.27;13.95;;;5.30;99.90;;;;;;4779946;29;20074;-70
2022/01/15 09:22:54;;;;;;;23.15;13.75;;;5.00;99.90;;;;;;4779246;29;20047;-70
2022/01/15 09:25:19;;;;;;;27.73;13.93;;;5.10;99.90;;;;;;4780307;29;20488;-69
2022/01/15 09:30:46;;;;;;;20.60;11.93;;;5.40;99.90;;;;;;4756797;30;20060;-70
2022/01/15 09:33:12;;;;;;;20.27;10.95;;;5.20;99.90;;;;;;4771660;29;20112;-70
2022/01/15 09:35:38;;;;;;;18.52;10.40;;;5.20;99.90;;;;;;4779922;29;20135;-70
2022/01/15 09:38:04;;;;;;;15.52;9.60;;;5.30;99.90;;;;;;4749660;29;20059;-70
2022/01/15 09:40:30;;;;;;;14.65;9.32;;;5.20;99.90;;;;;;4764567;29;20061;-70
2022/01/15 09:42:56;;;;;;;12.50;8.30;;;5.20;99.90;;;;;;4781277;29;20047;-69
2022/01/15 09:45:24;;;;;;;10.63;7.25;;;5.20;99.90;;;;;;4779596;29;20059;-69
2022/01/15 09:47:58;;;;;;;10.80;7.57;;;5.00;99.90;;;;;;4781389;29;20119;-69
2022/01/15 09:50:26;;;;;;;10.77;7.28;;;4.90;99.90;;;;;;4779070;29;20048;-70
2022/01/15 09:52:55;;;;;;;15.38;9.32;;;4.80;99.90;;;;;;4780670;29;20074;-69
2022/01/15 09:55:22;;;;;;;21.35;11.32;;;4.80;99.90;;;;;;4765307;29;20090;-70
2022/01/15 09:57:48;;;;;;;23.33;10.85;;;4.70;99.90;;;;;;4778836;29;20055;-69
2022/01/15 10:00:17;;;;;;;12.48;8.95;;;4.70;99.90;;;;;;4781763;29;20046;-69
2022/01/15 10:02:44;;;;;;;11.35;8.00;;;4.70;99.90;;;;;;4779358;29;20409;-69
2022/01/15 10:05:11;;;;;;;11.68;8.10;;;4.70;99.90;;;;;;4780369;29;20051;-69
2022/01/15 10:07:37;;;;;;;12.65;8.80;;;4.70;99.90;;;;;;4781174;29;20146;-70
2022/01/15 10:10:16;;;;;;;14.18;9.07;;;4.70;99.90;;;;;;4782245;29;20146;-70
2022/01/15 10:12:44;;;;;;;15.38;9.73;;;4.70;99.90;;;;;;4781482;29;20424;-70
2022/01/15 10:15:11;;;;;;;15.57;9.43;;;4.70;99.90;;;;;;4780306;29;20447;-70
2022/01/15 10:17:38;;;;;;;15.13;9.75;;;4.80;99.90;;;;;;4777541;29;20071;-69
2022/01/15 10:20:10;;;;;;;15.00;9.95;;;4.80;99.90;;;;;;4782075;29;20051;-70
2022/01/15 10:22:40;;;;;;;14.30;9.23;;;4.80;99.90;;;;;;4779846;29;20489;-70
2022/01/15 10:25:10;;;;;;;17.65;11.38;;;4.80;99.90;;;;;;4782094;29;20039;-70
2022/01/15 10:27:44;;;;;;;19.30;11.55;;;4.80;99.90;;;;;;4780845;29;20067;-70
2022/01/15 10:30:12;;;;;;;16.52;10.48;;;4.90;99.90;;;;;;4781589;29;20447;-70
2022/01/15 10:32:54;;;;;;;15.05;10.40;;;4.90;99.90;;;;;;4782149;29;20047;-70
2022/01/15 10:35:20;;;;;;;19.42;11.70;;;5.00;99.90;;;;;;4779768;29;20528;-70
2022/01/15 10:37:51;;;;;;;17.55;11.55;;;5.00;99.90;;;;;;4780985;29;20135;-69
2022/01/15 10:40:19;;;;;;;20.33;12.75;;;5.20;99.90;;;;;;4781189;29;20043;-70
2022/01/15 10:42:55;;;;;;;19.70;12.40;;;5.10;99.90;;;;;;4780457;29;20116;-70
2022/01/15 10:45:22;;;;;;;20.23;12.45;;;5.10;99.90;;;;;;4780761;29;20155;-70
2022/01/15 10:47:50;;;;;;;18.52;12.02;;;5.20;99.90;;;;;;4780628;29;20191;-69
2022/01/15 10:50:36;;;;;;;19.08;12.30;;;5.20;99.90;;;;;;4779235;29;20051;-70
2022/01/15 10:53:10;;;;;;;20.83;13.15;;;5.20;99.90;;;;;;4779190;29;20047;-69
2022/01/15 10:55:38;;;;;;;19.17;12.93;;;5.10;99.90;;;;;;4778742;29;20070;-69
2022/01/15 10:58:05;;;;;;;21.00;13.77;;;5.00;99.90;;;;;;4780672;29;20504;-69
2022/01/15 11:00:42;;;;;;;21.17;13.75;;;4.90;99.90;;;;;;4779453;29;20421;-69
2022/01/15 11:03:16;;;;;;;20.70;14.27;;;4.90;99.90;;;;;;4779155;29;20505;-70
2022/01/15 11:05:43;;;;;;;23.17;14.20;;;4.90;99.90;;;;;;4781110;29;20124;-69
2022/01/15 11:08:23;;;;;;;23.55;13.85;;;4.90;99.90;;;;;;4779286;29;20368;-69
2022/01/15 11:10:53;;;;;;;25.13;14.95;;;4.90;99.90;;;;;;4783405;29;20056;-69
2022/01/15 11:13:25;;;;;;;27.73;15.40;;;4.90;99.90;;;;;;4783225;29;20531;-69
2022/01/15 11:15:56;;;;;;;24.20;15.30;;;5.00;99.90;;;;;;4783924;29;20097;-69
2022/01/15 11:18:28;;;;;;;25.60;14.65;;;5.10;99.90;;;;;;4785236;29;20163;-69
2022/01/15 11:20:56;;;;;;;26.90;15.50;;;5.10;99.90;;;;;;4785422;29;20055;-69
2022/01/15 11:23:24;;;;;;;24.20;15.60;;;5.20;99.90;;;;;;4782515;29;20128;-69
2022/01/15 11:25:52;;;;;;;27.05;15.30;;;5.20;99.90;;;;;;4783042;29;20051;-69
2022/01/15 11:28:22;;;;;;;27.42;15.00;;;5.30;99.90;;;;;;4767517;29;20461;-69
2022/01/15 11:30:51;;;;;;;29.42;16.33;;;5.20;99.90;;;;;;4768016;29;20120;-69
2022/01/15 11:33:32;;;;;;;26.77;16.30;;;5.30;99.90;;;;;;4779145;29;20122;-69
2022/01/15 11:35:58;;;;;;;32.15;16.60;;;5.30;99.90;;;;;;4781817;29;20083;-69
2022/01/15 11:38:45;;;;;;;29.33;16.05;;;5.20;99.90;;;;;;4767978;29;20043;-69
2022/01/15 11:41:26;;;;;;;23.90;13.73;;;5.20;99.90;;;;;;4781532;29;20481;-69
2022/01/15 11:44:10;;;;;;;24.40;14.48;;;5.20;99.90;;;;;;4782454;29;20050;-70
2022/01/15 11:47:00;;;;;;;22.08;13.52;;;5.20;99.90;;;;;;4781511;29;20062;-69
2022/01/15 11:49:32;;;;;;;32.97;15.68;;;5.10;99.90;;;;;;4783923;29;20062;-69
2022/01/15 11:52:08;;;;;;;25.48;14.13;;;5.00;99.90;;;;;;4782875;29;20063;-69
2022/01/15 11:54:53;;;;;;;30.95;15.23;;;5.00;99.90;;;;;;4782968;29;20090;-69
2022/01/15 11:57:23;;;;;;;27.80;14.95;;;4.80;99.90;;;;;;4779552;29;20116;-69
2022/01/15 11:59:57;;;;;;;29.30;14.82;;;4.70;99.90;;;;;;4783590;29;20132;-69
2022/01/15 12:02:34;;;;;;;27.40;13.52;;;4.70;99.90;;;;;;4782540;29;20138;-69
2022/01/15 12:05:15;;;;;;;30.40;15.30;;;4.70;99.90;;;;;;4797202;29;20162;-69
2022/01/15 12:07:42;;;;;;;31.77;14.30;;;4.80;99.90;;;;;;4785285;29;20054;-69
2022/01/15 12:10:17;;;;;;;33.95;15.38;;;4.60;99.90;;;;;;4786362;29;20047;-69
2022/01/15 12:12:53;;;;;;;36.75;15.95;;;4.60;99.90;;;;;;4782288;29;20292;-69
2022/01/15 12:15:26;;;;;;;41.03;18.20;;;4.60;99.90;;;;;;4784829;29;20127;-69
2022/01/15 12:17:54;;;;;;;40.38;17.27;;;4.60;99.90;;;;;;4784413;29;20143;-69
2022/01/15 12:20:21;;;;;;;31.48;14.40;;;4.70;99.90;;;;;;4785053;29;20047;-69
2022/01/15 12:23:01;;;;;;;31.25;14.35;;;4.90;99.90;;;;;;4781762;29;20051;-69
2022/01/15 12:25:27;;;;;;;37.28;15.82;;;4.90;99.90;;;;;;4781839;29;20051;-69
2022/01/15 12:27:55;;;;;;;38.47;16.15;;;4.90;99.90;;;;;;4783796;29;20120;-69
2022/01/15 12:30:27;;;;;;;36.13;16.35;;;4.90;99.90;;;;;;4782789;29;20043;-69
2022/01/15 12:32:55;;;;;;;35.20;16.33;;;5.00;99.90;;;;;;4783284;29;20091;-69
2022/01/15 12:35:23;;;;;;;32.20;15.43;;;5.00;99.90;;;;;;4782000;29;20126;-69
2022/01/15 12:38:02;;;;;;;37.33;17.23;;;5.00;99.90;;;;;;4783985;29;20051;-69
2022/01/15 12:40:53;;;;;;;33.08;15.75;;;5.00;99.90;;;;;;4783525;29;20043;-69
2022/01/15 12:43:34;;;;;;;31.48;16.10;;;5.00;99.90;;;;;;4782196;29;20047;-69
2022/01/15 12:46:17;;;;;;;33.45;16.95;;;5.00;99.90;;;;;;4783116;29;20059;-69
2022/01/15 12:48:45;;;;;;;40.00;18.85;;;5.00;99.90;;;;;;4783454;29;20059;-69
2022/01/15 12:51:14;;;;;;;39.25;18.90;;;5.00;99.90;;;;;;4782218;29;20074;-69
2022/01/15 12:53:49;;;;;;;35.22;18.27;;;5.00;99.90;;;;;;4784020;29;20083;-69
2022/01/15 12:56:18;;;;;;;34.20;17.65;;;4.90;99.90;;;;;;4782121;29;21332;-69
2022/01/15 12:58:44;;;;;;;31.95;17.15;;;4.80;99.90;;;;;;4782496;29;20513;-69
2022/01/15 13:01:11;;;;;;;33.92;17.50;;;4.80;99.90;;;;;;4783189;29;20104;-69
2022/01/15 13:03:39;;;;;;;35.42;19.52;;;4.70;99.90;;;;;;4784224;29;20116;-69
2022/01/15 13:06:06;;;;;;;36.08;18.55;;;4.70;99.90;;;;;;4783497;29;20101;-69
2022/01/15 13:08:38;;;;;;;36.20;19.17;;;4.70;99.90;;;;;;4783422;29;20047;-69
2022/01/15 13:13:40;;;;;;;36.65;19.35;;;4.70;99.90;;;;;;4782699;29;20405;-69
2022/01/15 13:16:14;;;;;;;42.75;20.88;;;4.60;99.90;;;;;;4781030;29;20130;-69